Terminal Aerodrome Forecast
Issued by NWS Melbourne, FL

Home | Current Version | Previous Version | Text Only | Print | Product List | Glossary On
Versions: 1 2 3 4 5 6 7 8 9 10 11 12 13 14 15
000
FTUS42 KMLB 181100 RRA
TAFVRB
TAF
KVRB 181141Z 1812/1912 30004KT 3SM BR OVC004
     FM181400 33005KT P6SM FEW015
     FM181600 05008KT P6SM SCT030
     FM182000 09010KT P6SM SCT035 SCT120
     FM190200 08003KT P6SM FEW030 BKN250=

USA.gov is the U.S. government's official web portal to all federal, state and local government web resources and services.